sensor_id;sensor_type;location;lat;lon;timestamp;pressure;altitude;pressure_sealevel;temperature;humidity
76808;BME280;65758;45.458;11.062;2023-06-19T00:01:08;100884.27;;;24.28;50.34
76808;BME280;65758;45.458;11.062;2023-06-19T00:03:35;100885.98;;;24.28;50.46
76808;BME280;65758;45.458;11.062;2023-06-19T00:06:02;100882.49;;;24.27;50.56
76808;BME280;65758;45.458;11.062;2023-06-19T00:08:29;100884.59;;;24.23;50.53
76808;BME280;65758;45.458;11.062;2023-06-19T00:10:57;100888.21;;;24.19;50.50
76808;BME280;65758;45.458;11.062;2023-06-19T00:13:24;100884.02;;;24.13;50.73
76808;BME280;65758;45.458;11.062;2023-06-19T00:15:51;100882.75;;;24.10;50.72
76808;BME280;65758;45.458;11.062;2023-06-19T00:18:18;100885.36;;;24.02;50.67
76808;BME280;65758;45.458;11.062;2023-06-19T00:20:46;100888.91;;;23.99;50.74
76808;BME280;65758;45.458;11.062;2023-06-19T00:23:14;100886.16;;;23.94;50.81
76808;BME280;65758;45.458;11.062;2023-06-19T00:25:43;100883.34;;;23.91;50.90
76808;BME280;65758;45.458;11.062;2023-06-19T00:28:11;100880.77;;;23.88;50.94
76808;BME280;65758;45.458;11.062;2023-06-19T00:30:41;100882.98;;;23.86;51.08
76808;BME280;65758;45.458;11.062;2023-06-19T00:33:08;100880.85;;;23.84;50.99
76808;BME280;65758;45.458;11.062;2023-06-19T00:35:35;100884.50;;;23.77;51.04
76808;BME280;65758;45.458;11.062;2023-06-19T00:38:05;100882.83;;;23.72;51.03
76808;BME280;65758;45.458;11.062;2023-06-19T00:40:33;100878.08;;;23.69;51.13
76808;BME280;65758;45.458;11.062;2023-06-19T00:43:00;100881.64;;;23.68;51.13
76808;BME280;65758;45.458;11.062;2023-06-19T00:45:27;100880.88;;;23.66;51.25
76808;BME280;65758;45.458;11.062;2023-06-19T00:47:56;100879.65;;;23.66;51.22
76808;BME280;65758;45.458;11.062;2023-06-19T00:50:25;100885.23;;;23.66;51.09
76808;BME280;65758;45.458;11.062;2023-06-19T00:52:53;100888.55;;;23.63;51.10
76808;BME280;65758;45.458;11.062;2023-06-19T00:55:21;100892.96;;;23.63;51.20
76808;BME280;65758;45.458;11.062;2023-06-19T00:57:49;100900.66;;;23.60;51.07
76808;BME280;65758;45.458;11.062;2023-06-19T01:00:17;100908.54;;;23.56;51.17
76808;BME280;65758;45.458;11.062;2023-06-19T01:02:46;100908.28;;;23.54;51.29
76808;BME280;65758;45.458;11.062;2023-06-19T01:05:14;100908.59;;;23.53;51.23
76808;BME280;65758;45.458;11.062;2023-06-19T01:10:45;100911.77;;;23.50;51.26
76808;BME280;65758;45.458;11.062;2023-06-19T01:13:22;100916.83;;;23.52;51.22
76808;BME280;65758;45.458;11.062;2023-06-19T01:15:51;100915.42;;;23.49;51.21
76808;BME280;65758;45.458;11.062;2023-06-19T01:18:19;100921.44;;;23.50;51.25
76808;BME280;65758;45.458;11.062;2023-06-19T01:20:48;100922.63;;;23.52;51.23
76808;BME280;65758;45.458;11.062;2023-06-19T01:23:15;100924.16;;;23.57;51.30
76808;BME280;65758;45.458;11.062;2023-06-19T01:25:42;100929.02;;;23.60;51.20
76808;BME280;65758;45.458;11.062;2023-06-19T01:28:10;100929.79;;;23.63;51.24
76808;BME280;65758;45.458;11.062;2023-06-19T01:30:41;100933.38;;;23.65;51.19
76808;BME280;65758;45.458;11.062;2023-06-19T01:33:25;100933.29;;;23.67;51.20
76808;BME280;65758;45.458;11.062;2023-06-19T01:35:53;100940.15;;;23.65;51.12
76808;BME280;65758;45.458;11.062;2023-06-19T01:38:21;100940.90;;;23.58;51.24
76808;BME280;65758;45.458;11.062;2023-06-19T01:40:55;100940.33;;;23.55;51.95
76808;BME280;65758;45.458;11.062;2023-06-19T01:43:24;100943.52;;;23.55;52.23
76808;BME280;65758;45.458;11.062;2023-06-19T01:45:51;100940.73;;;23.55;52.44
76808;BME280;65758;45.458;11.062;2023-06-19T01:48:18;100940.52;;;23.51;52.08
76808;BME280;65758;45.458;11.062;2023-06-19T01:50:46;100939.60;;;23.47;52.35
76808;BME280;65758;45.458;11.062;2023-06-19T01:53:14;100940.14;;;23.45;52.42
76808;BME280;65758;45.458;11.062;2023-06-19T01:55:41;100944.52;;;23.43;52.59
76808;BME280;65758;45.458;11.062;2023-06-19T01:58:08;100944.06;;;23.40;52.76
76808;BME280;65758;45.458;11.062;2023-06-19T02:00:35;100946.14;;;23.37;52.90
76808;BME280;65758;45.458;11.062;2023-06-19T02:03:03;100942.88;;;23.34;53.02
76808;BME280;65758;45.458;11.062;2023-06-19T02:05:30;100941.69;;;23.32;53.08
76808;BME280;65758;45.458;11.062;2023-06-19T02:08:00;100943.55;;;23.28;53.18
76808;BME280;65758;45.458;11.062;2023-06-19T02:10:27;100949.15;;;23.24;53.29
76808;BME280;65758;45.458;11.062;2023-06-19T02:12:55;100951.59;;;23.21;53.36
76808;BME280;65758;45.458;11.062;2023-06-19T02:15:22;100953.34;;;23.17;53.53
76808;BME280;65758;45.458;11.062;2023-06-19T02:17:48;100955.44;;;23.15;53.51
76808;BME280;65758;45.458;11.062;2023-06-19T02:20:15;100957.09;;;23.14;53.59
76808;BME280;65758;45.458;11.062;2023-06-19T02:22:42;100961.45;;;23.13;53.53
76808;BME280;65758;45.458;11.062;2023-06-19T02:25:09;100961.52;;;23.13;53.25
76808;BME280;65758;45.458;11.062;2023-06-19T02:27:36;100961.56;;;23.14;53.11
76808;BME280;65758;45.458;11.062;2023-06-19T02:30:03;100964.35;;;23.14;53.19
76808;BME280;65758;45.458;11.062;2023-06-19T02:32:31;100962.30;;;23.15;53.05
76808;BME280;65758;45.458;11.062;2023-06-19T02:34:58;100963.33;;;23.18;52.99
76808;BME280;65758;45.458;11.062;2023-06-19T02:37:25;100972.40;;;23.20;52.92
76808;BME280;65758;45.458;11.062;2023-06-19T02:39:51;100972.85;;;23.22;52.89
76808;BME280;65758;45.458;11.062;2023-06-19T02:42:18;100975.16;;;23.22;53.11
76808;BME280;65758;45.458;11.062;2023-06-19T02:44:45;100972.37;;;23.22;53.59
76808;BME280;65758;45.458;11.062;2023-06-19T02:47:12;100971.66;;;23.21;53.80
76808;BME280;65758;45.458;11.062;2023-06-19T02:49:39;100972.54;;;23.18;54.09
76808;BME280;65758;45.458;11.062;2023-06-19T02:52:06;100969.69;;;23.15;54.18
76808;BME280;65758;45.458;11.062;2023-06-19T02:54:33;100970.52;;;23.12;54.27
76808;BME280;65758;45.458;11.062;2023-06-19T02:57:00;100972.30;;;23.09;54.34
76808;BME280;65758;45.458;11.062;2023-06-19T02:59:27;100972.44;;;23.08;54.18
76808;BME280;65758;45.458;11.062;2023-06-19T03:01:54;100974.70;;;23.07;54.40
76808;BME280;65758;45.458;11.062;2023-06-19T03:04:20;100973.05;;;23.05;54.55
76808;BME280;65758;45.458;11.062;2023-06-19T03:06:48;100981.63;;;23.03;54.53
76808;BME280;65758;45.458;11.062;2023-06-19T03:09:14;100978.29;;;23.02;54.73
76808;BME280;65758;45.458;11.062;2023-06-19T03:11:42;100977.42;;;23.00;54.91
76808;BME280;65758;45.458;11.062;2023-06-19T03:14:09;100985.27;;;22.99;55.00
76808;BME280;65758;45.458;11.062;2023-06-19T03:16:36;100980.15;;;22.97;54.97
76808;BME280;65758;45.458;11.062;2023-06-19T03:19:03;100982.02;;;22.95;55.16
76808;BME280;65758;45.458;11.062;2023-06-19T03:21:32;100985.75;;;22.93;55.16
76808;BME280;65758;45.458;11.062;2023-06-19T03:23:58;100982.33;;;22.90;55.11
76808;BME280;65758;45.458;11.062;2023-06-19T03:26:26;100985.71;;;22.87;55.23
76808;BME280;65758;45.458;11.062;2023-06-19T03:28:56;100981.50;;;22.82;55.34
76808;BME280;65758;45.458;11.062;2023-06-19T03:31:23;100983.52;;;22.73;55.38
76808;BME280;65758;45.458;11.062;2023-06-19T03:33:51;100986.41;;;22.65;55.61
76808;BME280;65758;45.458;11.062;2023-06-19T03:36:18;100988.45;;;22.59;55.72
76808;BME280;65758;45.458;11.062;2023-06-19T03:38:50;100984.21;;;22.54;55.86
76808;BME280;65758;45.458;11.062;2023-06-19T03:41:19;100985.71;;;22.51;55.90
76808;BME280;65758;45.458;11.062;2023-06-19T03:43:46;100986.90;;;22.50;56.09
76808;BME280;65758;45.458;11.062;2023-06-19T03:46:13;100990.61;;;22.48;56.06
76808;BME280;65758;45.458;11.062;2023-06-19T03:48:40;100992.45;;;22.47;56.14
76808;BME280;65758;45.458;11.062;2023-06-19T03:51:07;100992.41;;;22.46;56.12
76808;BME280;65758;45.458;11.062;2023-06-19T03:53:34;100994.77;;;22.46;56.19
76808;BME280;65758;45.458;11.062;2023-06-19T03:56:01;100994.04;;;22.46;56.13
76808;BME280;65758;45.458;11.062;2023-06-19T03:58:28;100994.41;;;22.47;56.09
76808;BME280;65758;45.458;11.062;2023-06-19T04:00:54;100993.48;;;22.47;56.19
76808;BME280;65758;45.458;11.062;2023-06-19T04:03:22;100989.29;;;22.46;56.23
76808;BME280;65758;45.458;11.062;2023-06-19T04:05:50;100988.89;;;22.46;56.15
76808;BME280;65758;45.458;11.062;2023-06-19T04:08:17;100987.88;;;22.49;56.15
76808;BME280;65758;45.458;11.062;2023-06-19T04:10:44;100989.67;;;22.51;56.13
76808;BME280;65758;45.458;11.062;2023-06-19T04:13:11;100987.84;;;22.55;56.08
76808;BME280;65758;45.458;11.062;2023-06-19T04:15:38;100988.21;;;22.60;56.08
76808;BME280;65758;45.458;11.062;2023-06-19T04:18:05;100994.09;;;22.66;56.15
76808;BME280;65758;45.458;11.062;2023-06-19T04:20:32;100992.45;;;22.71;56.06
76808;BME280;65758;45.458;11.062;2023-06-19T04:23:00;100993.64;;;22.76;55.90
76808;BME280;65758;45.458;11.062;2023-06-19T04:25:27;100993.10;;;22.82;55.82
76808;BME280;65758;45.458;11.062;2023-06-19T04:27:55;100993.88;;;22.90;55.59
76808;BME280;65758;45.458;11.062;2023-06-19T04:30:22;100988.58;;;22.93;55.56
76808;BME280;65758;45.458;11.062;2023-06-19T04:32:49;100993.15;;;22.97;55.50
76808;BME280;65758;45.458;11.062;2023-06-19T04:35:16;100995.67;;;23.03;55.62
76808;BME280;65758;45.458;11.062;2023-06-19T04:37:45;100990.85;;;23.09;55.42
76808;BME280;65758;45.458;11.062;2023-06-19T04:40:15;100989.10;;;23.12;55.47
76808;BME280;65758;45.458;11.062;2023-06-19T04:42:42;100991.48;;;23.14;55.55
76808;BME280;65758;45.458;11.062;2023-06-19T04:45:09;100991.10;;;23.17;55.49
76808;BME280;65758;45.458;11.062;2023-06-19T04:47:36;100989.73;;;23.25;55.46
76808;BME280;65758;45.458;11.062;2023-06-19T04:50:18;100991.83;;;23.36;55.77
76808;BME280;65758;45.458;11.062;2023-06-19T04:52:45;100986.58;;;23.44;55.72
76808;BME280;65758;45.458;11.062;2023-06-19T04:55:12;100983.30;;;23.53;55.50
76808;BME280;65758;45.458;11.062;2023-06-19T04:57:39;100978.23;;;23.60;55.34
76808;BME280;65758;45.458;11.062;2023-06-19T05:00:06;100978.08;;;23.66;55.24
76808;BME280;65758;45.458;11.062;2023-06-19T05:02:33;100976.79;;;23.74;55.19
76808;BME280;65758;45.458;11.062;2023-06-19T05:05:02;100978.27;;;23.82;55.15
76808;BME280;65758;45.458;11.062;2023-06-19T05:07:29;100977.06;;;23.90;55.23
76808;BME280;65758;45.458;11.062;2023-06-19T05:09:58;100974.45;;;23.97;54.96
76808;BME280;65758;45.458;11.062;2023-06-19T05:12:25;100974.80;;;24.05;54.82
76808;BME280;65758;45.458;11.062;2023-06-19T05:14:52;100976.27;;;24.11;54.64
76808;BME280;65758;45.458;11.062;2023-06-19T05:17:18;100977.34;;;24.16;54.36
76808;BME280;65758;45.458;11.062;2023-06-19T05:19:46;100974.98;;;24.26;54.33
76808;BME280;65758;45.458;11.062;2023-06-19T05:22:12;100977.30;;;24.40;53.98
76808;BME280;65758;45.458;11.062;2023-06-19T05:24:40;100978.91;;;24.59;53.60
76808;BME280;65758;45.458;11.062;2023-06-19T05:27:07;100980.75;;;24.76;53.32
76808;BME280;65758;45.458;11.062;2023-06-19T05:29:34;100982.98;;;24.92;53.06
76808;BME280;65758;45.458;11.062;2023-06-19T05:32:01;100981.35;;;25.08;52.88
76808;BME280;65758;45.458;11.062;2023-06-19T05:34:27;100980.51;;;25.24;52.50
76808;BME280;65758;45.458;11.062;2023-06-19T05:36:54;100982.95;;;25.40;52.02
76808;BME280;65758;45.458;11.062;2023-06-19T05:39:21;100984.66;;;25.59;51.79
76808;BME280;65758;45.458;11.062;2023-06-19T05:41:48;100983.75;;;25.76;51.22
76808;BME280;65758;45.458;11.062;2023-06-19T05:44:15;100983.73;;;25.93;50.96
76808;BME280;65758;45.458;11.062;2023-06-19T05:46:43;100981.95;;;26.11;50.97
76808;BME280;65758;45.458;11.062;2023-06-19T05:49:10;100983.88;;;26.31;50.49
76808;BME280;65758;45.458;11.062;2023-06-19T05:51:37;100977.83;;;26.47;50.19
76808;BME280;65758;45.458;11.062;2023-06-19T05:54:04;100977.08;;;26.60;49.99
76808;BME280;65758;45.458;11.062;2023-06-19T05:56:32;100979.20;;;26.71;49.86
76808;BME280;65758;45.458;11.062;2023-06-19T05:59:05;100978.48;;;26.84;49.47
76808;BME280;65758;45.458;11.062;2023-06-19T06:01:32;100979.64;;;26.93;49.43
76808;BME280;65758;45.458;11.062;2023-06-19T06:04:00;100981.06;;;27.03;49.16
76808;BME280;65758;45.458;11.062;2023-06-19T06:06:29;100982.52;;;27.13;48.95
76808;BME280;65758;45.458;11.062;2023-06-19T06:08:56;100980.92;;;27.21;48.94
76808;BME280;65758;45.458;11.062;2023-06-19T06:11:23;100985.94;;;27.27;48.62
76808;BME280;65758;45.458;11.062;2023-06-19T06:13:49;100987.30;;;27.32;48.66
76808;BME280;65758;45.458;11.062;2023-06-19T06:16:16;100982.71;;;27.35;48.63
76808;BME280;65758;45.458;11.062;2023-06-19T06:18:45;100985.81;;;27.42;48.50
76808;BME280;65758;45.458;11.062;2023-06-19T06:21:12;100989.80;;;27.48;48.23
76808;BME280;65758;45.458;11.062;2023-06-19T06:23:42;100990.94;;;27.55;48.17
76808;BME280;65758;45.458;11.062;2023-06-19T06:26:11;100987.97;;;27.65;48.16
76808;BME280;65758;45.458;11.062;2023-06-19T06:28:38;100988.66;;;27.75;47.86
76808;BME280;65758;45.458;11.062;2023-06-19T06:31:07;100986.11;;;27.88;47.60
76808;BME280;65758;45.458;11.062;2023-06-19T06:33:34;100981.61;;;28.00;47.46
76808;BME280;65758;45.458;11.062;2023-06-19T06:36:01;100981.30;;;28.09;47.15
76808;BME280;65758;45.458;11.062;2023-06-19T06:38:28;100978.88;;;28.20;46.78
76808;BME280;65758;45.458;11.062;2023-06-19T06:40:55;100975.66;;;28.30;46.68
76808;BME280;65758;45.458;11.062;2023-06-19T06:43:21;100976.73;;;28.40;46.58
76808;BME280;65758;45.458;11.062;2023-06-19T06:45:48;100968.76;;;28.54;46.23
76808;BME280;65758;45.458;11.062;2023-06-19T06:48:15;100969.98;;;28.57;46.10
76808;BME280;65758;45.458;11.062;2023-06-19T06:50:43;100967.19;;;28.51;46.11
76808;BME280;65758;45.458;11.062;2023-06-19T06:53:10;100968.77;;;28.44;45.84
76808;BME280;65758;45.458;11.062;2023-06-19T06:55:37;100967.25;;;28.46;45.80
76808;BME280;65758;45.458;11.062;2023-06-19T06:58:03;100962.27;;;28.49;45.67
76808;BME280;65758;45.458;11.062;2023-06-19T07:00:32;100961.59;;;28.56;45.42
76808;BME280;65758;45.458;11.062;2023-06-19T07:02:58;100958.89;;;28.51;45.05
76808;BME280;65758;45.458;11.062;2023-06-19T07:05:26;100959.54;;;28.45;45.12
76808;BME280;65758;45.458;11.062;2023-06-19T07:07:55;100952.66;;;28.44;45.11
76808;BME280;65758;45.458;11.062;2023-06-19T07:10:22;100952.67;;;28.42;44.95
76808;BME280;65758;45.458;11.062;2023-06-19T07:12:50;100949.36;;;28.44;44.80
76808;BME280;65758;45.458;11.062;2023-06-19T07:15:18;100947.25;;;28.45;44.63
76808;BME280;65758;45.458;11.062;2023-06-19T07:17:45;100949.23;;;28.51;44.89
76808;BME280;65758;45.458;11.062;2023-06-19T07:20:13;100952.64;;;28.62;44.47
76808;BME280;65758;45.458;11.062;2023-06-19T07:22:41;100951.45;;;28.65;44.33
76808;BME280;65758;45.458;11.062;2023-06-19T07:25:10;100952.73;;;28.86;44.13
76808;BME280;65758;45.458;11.062;2023-06-19T07:27:38;100947.52;;;29.19;44.05
76808;BME280;65758;45.458;11.062;2023-06-19T07:30:06;100946.11;;;29.36;44.01
76808;BME280;65758;45.458;11.062;2023-06-19T07:32:34;100944.52;;;29.62;43.63
76808;BME280;65758;45.458;11.062;2023-06-19T07:35:01;100943.02;;;29.93;43.25
76808;BME280;65758;45.458;11.062;2023-06-19T07:37:28;100940.84;;;30.22;43.11
76808;BME280;65758;45.458;11.062;2023-06-19T07:39:55;100942.92;;;30.36;43.10
76808;BME280;65758;45.458;11.062;2023-06-19T07:42:22;100945.87;;;30.52;43.04
76808;BME280;65758;45.458;11.062;2023-06-19T07:44:49;100946.50;;;30.60;42.29
76808;BME280;65758;45.458;11.062;2023-06-19T07:47:17;100945.59;;;30.64;41.65
76808;BME280;65758;45.458;11.062;2023-06-19T07:49:47;100950.38;;;30.75;41.52
76808;BME280;65758;45.458;11.062;2023-06-19T07:52:14;100948.13;;;30.84;41.71
76808;BME280;65758;45.458;11.062;2023-06-19T07:54:50;100953.34;;;30.93;41.36
76808;BME280;65758;45.458;11.062;2023-06-19T07:57:17;100952.08;;;31.04;40.83
76808;BME280;65758;45.458;11.062;2023-06-19T07:59:44;100955.13;;;31.20;40.77
76808;BME280;65758;45.458;11.062;2023-06-19T08:02:11;100956.52;;;31.29;40.55
76808;BME280;65758;45.458;11.062;2023-06-19T08:04:38;100954.28;;;31.42;40.66
76808;BME280;65758;45.458;11.062;2023-06-19T08:07:05;100956.98;;;31.60;40.23
76808;BME280;65758;45.458;11.062;2023-06-19T08:09:33;100958.17;;;31.77;39.96
76808;BME280;65758;45.458;11.062;2023-06-19T08:12:01;100959.20;;;31.92;39.86
76808;BME280;65758;45.458;11.062;2023-06-19T08:14:29;100962.98;;;32.06;39.44
76808;BME280;65758;45.458;11.062;2023-06-19T08:16:56;100967.67;;;32.15;39.22
76808;BME280;65758;45.458;11.062;2023-06-19T08:19:23;100963.76;;;32.24;38.83
76808;BME280;65758;45.458;11.062;2023-06-19T08:21:50;100969.68;;;32.34;39.15
76808;BME280;65758;45.458;11.062;2023-06-19T08:24:17;100975.54;;;32.42;38.87
76808;BME280;65758;45.458;11.062;2023-06-19T08:26:44;100973.64;;;32.51;39.11
76808;BME280;65758;45.458;11.062;2023-06-19T08:29:11;100977.11;;;32.63;39.01
76808;BME280;65758;45.458;11.062;2023-06-19T08:31:38;100975.95;;;32.73;38.63
76808;BME280;65758;45.458;11.062;2023-06-19T08:34:04;100980.54;;;32.82;38.39
76808;BME280;65758;45.458;11.062;2023-06-19T08:36:35;100977.21;;;32.89;38.38
76808;BME280;65758;45.458;11.062;2023-06-19T08:39:03;100979.02;;;32.98;38.12
76808;BME280;65758;45.458;11.062;2023-06-19T08:41:30;100985.52;;;33.09;37.75
76808;BME280;65758;45.458;11.062;2023-06-19T08:43:57;100987.40;;;33.17;37.55
76808;BME280;65758;45.458;11.062;2023-06-19T08:46:24;100990.19;;;33.27;37.41
76808;BME280;65758;45.458;11.062;2023-06-19T08:48:54;100991.79;;;33.30;37.08
76808;BME280;65758;45.458;11.062;2023-06-19T08:51:21;100992.89;;;33.28;37.11
76808;BME280;65758;45.458;11.062;2023-06-19T08:53:54;100991.21;;;33.33;36.83
76808;BME280;65758;45.458;11.062;2023-06-19T08:56:22;100986.61;;;33.42;37.01
76808;BME280;65758;45.458;11.062;2023-06-19T08:58:48;100986.44;;;33.58;37.23
76808;BME280;65758;45.458;11.062;2023-06-19T09:01:19;100988.58;;;33.80;36.78
76808;BME280;65758;45.458;11.062;2023-06-19T09:03:46;100989.10;;;34.00;36.46
76808;BME280;65758;45.458;11.062;2023-06-19T09:06:17;100989.17;;;34.17;35.95
76808;BME280;65758;45.458;11.062;2023-06-19T09:08:44;100988.80;;;34.28;35.54
76808;BME280;65758;45.458;11.062;2023-06-19T09:11:11;100989.48;;;34.36;35.32
76808;BME280;65758;45.458;11.062;2023-06-19T09:13:37;100989.73;;;34.42;35.42
76808;BME280;65758;45.458;11.062;2023-06-19T09:16:06;100986.65;;;34.47;35.07
76808;BME280;65758;45.458;11.062;2023-06-19T09:18:44;100986.31;;;34.52;35.13
76808;BME280;65758;45.458;11.062;2023-06-19T09:21:18;100983.27;;;34.54;34.89
76808;BME280;65758;45.458;11.062;2023-06-19T09:23:46;100987.44;;;34.56;35.21
76808;BME280;65758;45.458;11.062;2023-06-19T09:26:15;100988.13;;;34.63;35.01
76808;BME280;65758;45.458;11.062;2023-06-19T09:28:43;100989.53;;;34.74;34.64
76808;BME280;65758;45.458;11.062;2023-06-19T09:31:10;100986.80;;;34.82;34.52
76808;BME280;65758;45.458;11.062;2023-06-19T09:33:39;100986.36;;;34.86;34.39
76808;BME280;65758;45.458;11.062;2023-06-19T09:36:06;100989.03;;;34.91;34.41
76808;BME280;65758;45.458;11.062;2023-06-19T09:38:35;100992.33;;;35.00;34.18
76808;BME280;65758;45.458;11.062;2023-06-19T09:41:07;100987.65;;;35.15;34.25
76808;BME280;65758;45.458;11.062;2023-06-19T09:46:05;100988.64;;;35.28;33.40
76808;BME280;65758;45.458;11.062;2023-06-19T09:48:33;100988.33;;;35.22;33.50
76808;BME280;65758;45.458;11.062;2023-06-19T09:53:39;100986.31;;;35.31;33.83
76808;BME280;65758;45.458;11.062;2023-06-19T09:56:07;100984.45;;;35.37;33.42
76808;BME280;65758;45.458;11.062;2023-06-19T09:58:34;100987.14;;;35.45;33.58
76808;BME280;65758;45.458;11.062;2023-06-19T10:01:04;100989.38;;;35.56;32.81
76808;BME280;65758;45.458;11.062;2023-06-19T10:03:32;100985.84;;;35.53;32.61
76808;BME280;65758;45.458;11.062;2023-06-19T10:06:00;100988.21;;;35.46;32.69
76808;BME280;65758;45.458;11.062;2023-06-19T10:08:46;100988.33;;;35.29;32.81
76808;BME280;65758;45.458;11.062;2023-06-19T10:11:13;100989.33;;;35.18;32.93
76808;BME280;65758;45.458;11.062;2023-06-19T10:13:41;100987.32;;;35.08;32.82
76808;BME280;65758;45.458;11.062;2023-06-19T10:16:31;100989.23;;;34.93;32.53
76808;BME280;65758;45.458;11.062;2023-06-19T10:18:58;100985.46;;;34.97;32.36
76808;BME280;65758;45.458;11.062;2023-06-19T10:21:25;100983.69;;;35.04;32.71
76808;BME280;65758;45.458;11.062;2023-06-19T10:23:57;100982.43;;;35.09;32.95
76808;BME280;65758;45.458;11.062;2023-06-19T10:26:35;100983.80;;;35.18;32.01
76808;BME280;65758;45.458;11.062;2023-06-19T10:29:16;100982.86;;;35.15;32.11
76808;BME280;65758;45.458;11.062;2023-06-19T10:31:45;100981.08;;;35.14;31.71
76808;BME280;65758;45.458;11.062;2023-06-19T10:34:12;100984.16;;;35.21;31.58
76808;BME280;65758;45.458;11.062;2023-06-19T10:36:38;100973.66;;;35.27;31.61
76808;BME280;65758;45.458;11.062;2023-06-19T10:39:05;100971.20;;;35.31;31.89
76808;BME280;65758;45.458;11.062;2023-06-19T10:41:33;100965.48;;;35.36;31.62
76808;BME280;65758;45.458;11.062;2023-06-19T10:44:06;100964.98;;;35.28;31.63
76808;BME280;65758;45.458;11.062;2023-06-19T10:46:37;100972.62;;;35.21;31.50
76808;BME280;65758;45.458;11.062;2023-06-19T10:49:06;100968.29;;;35.19;30.67
76808;BME280;65758;45.458;11.062;2023-06-19T10:51:35;100961.83;;;35.23;30.95
76808;BME280;65758;45.458;11.062;2023-06-19T10:54:02;100967.20;;;35.38;31.11
76808;BME280;65758;45.458;11.062;2023-06-19T10:56:29;100964.48;;;35.57;30.58
76808;BME280;65758;45.458;11.062;2023-06-19T10:59:07;100965.95;;;35.69;30.25
76808;BME280;65758;45.458;11.062;2023-06-19T11:01:43;100962.38;;;35.80;30.42
76808;BME280;65758;45.458;11.062;2023-06-19T11:04:13;100955.27;;;35.95;30.61
76808;BME280;65758;45.458;11.062;2023-06-19T11:06:41;100956.85;;;36.14;29.72
76808;BME280;65758;45.458;11.062;2023-06-19T11:09:10;100958.34;;;36.18;29.85
76808;BME280;65758;45.458;11.062;2023-06-19T11:11:38;100955.21;;;36.13;29.02
76808;BME280;65758;45.458;11.062;2023-06-19T11:14:06;100952.71;;;36.00;28.16
76808;BME280;65758;45.458;11.062;2023-06-19T11:16:34;100951.22;;;35.78;27.89
76808;BME280;65758;45.458;11.062;2023-06-19T11:19:01;100947.07;;;35.70;28.13
76808;BME280;65758;45.458;11.062;2023-06-19T11:21:36;100946.61;;;35.64;28.51
76808;BME280;65758;45.458;11.062;2023-06-19T11:24:10;100945.12;;;35.63;28.43
76808;BME280;65758;45.458;11.062;2023-06-19T11:26:41;100944.41;;;35.59;28.40
76808;BME280;65758;45.458;11.062;2023-06-19T11:29:22;100943.58;;;35.49;28.45
76808;BME280;65758;45.458;11.062;2023-06-19T11:31:50;100932.36;;;35.51;28.64
76808;BME280;65758;45.458;11.062;2023-06-19T11:34:17;100936.30;;;35.47;28.83
76808;BME280;65758;45.458;11.062;2023-06-19T11:36:50;100939.73;;;35.39;28.92
76808;BME280;65758;45.458;11.062;2023-06-19T11:39:17;100936.45;;;35.36;28.90
76808;BME280;65758;45.458;11.062;2023-06-19T11:41:44;100931.83;;;35.30;28.58
76808;BME280;65758;45.458;11.062;2023-06-19T11:44:11;100938.04;;;35.33;28.94
76808;BME280;65758;45.458;11.062;2023-06-19T11:46:38;100935.48;;;35.37;29.33
76808;BME280;65758;45.458;11.062;2023-06-19T11:49:13;100928.51;;;35.47;29.21
76808;BME280;65758;45.458;11.062;2023-06-19T11:51:40;100925.18;;;35.58;28.96
76808;BME280;65758;45.458;11.062;2023-06-19T11:54:10;100925.64;;;35.66;29.04
76808;BME280;65758;45.458;11.062;2023-06-19T11:56:38;100915.68;;;35.72;29.38
76808;BME280;65758;45.458;11.062;2023-06-19T11:59:05;100923.27;;;35.75;29.47
76808;BME280;65758;45.458;11.062;2023-06-19T12:01:34;100918.88;;;35.66;29.56
76808;BME280;65758;45.458;11.062;2023-06-19T12:04:02;100920.47;;;35.71;29.73
76808;BME280;65758;45.458;11.062;2023-06-19T12:06:30;100910.34;;;35.67;29.79
76808;BME280;65758;45.458;11.062;2023-06-19T12:08:58;100903.18;;;35.61;29.81
76808;BME280;65758;45.458;11.062;2023-06-19T12:11:24;100898.52;;;35.50;30.57
76808;BME280;65758;45.458;11.062;2023-06-19T12:13:51;100898.92;;;35.35;31.03
76808;BME280;65758;45.458;11.062;2023-06-19T12:16:20;100893.93;;;35.32;30.99
76808;BME280;65758;45.458;11.062;2023-06-19T12:18:47;100892.23;;;35.41;31.06
76808;BME280;65758;45.458;11.062;2023-06-19T12:21:14;100888.02;;;35.43;31.07
76808;BME280;65758;45.458;11.062;2023-06-19T12:24:00;100885.94;;;35.29;31.00
76808;BME280;65758;45.458;11.062;2023-06-19T12:26:27;100886.73;;;35.26;31.44
76808;BME280;65758;45.458;11.062;2023-06-19T12:28:53;100881.63;;;35.28;31.77
76808;BME280;65758;45.458;11.062;2023-06-19T12:31:20;100879.55;;;35.33;31.44
76808;BME280;65758;45.458;11.062;2023-06-19T12:33:47;100881.80;;;35.37;31.33
76808;BME280;65758;45.458;11.062;2023-06-19T12:36:15;100882.02;;;35.36;31.30
76808;BME280;65758;45.458;11.062;2023-06-19T12:38:42;100878.59;;;35.34;31.24
76808;BME280;65758;45.458;11.062;2023-06-19T12:41:09;100878.36;;;35.36;31.04
76808;BME280;65758;45.458;11.062;2023-06-19T12:43:36;100874.93;;;35.42;30.76
76808;BME280;65758;45.458;11.062;2023-06-19T12:46:03;100873.84;;;35.47;30.50
76808;BME280;65758;45.458;11.062;2023-06-19T12:48:31;100873.01;;;35.53;30.42
76808;BME280;65758;45.458;11.062;2023-06-19T12:50:58;100866.68;;;35.56;30.04
76808;BME280;65758;45.458;11.062;2023-06-19T12:53:25;100869.12;;;35.62;29.99